createdAt,value
2023-03-06T00:01:48.626Z,66.64
2023-03-06T00:06:47.553Z,65.65
2023-03-06T00:11:46.597Z,64.96
2023-03-06T00:16:45.379Z,64.29
2023-03-06T00:21:44.443Z,64.84
2023-03-06T00:26:43.488Z,66.21
2023-03-06T00:31:46.448Z,65.18
2023-03-06T00:36:45.367Z,64.92
2023-03-06T00:41:46.856Z,65.73
2023-03-06T00:46:45.969Z,65.61
2023-03-06T00:51:44.834Z,65.63
2023-03-06T00:56:43.565Z,63.90
2023-03-06T01:01:42.981Z,64.76
2023-03-06T01:06:41.975Z,64.88
2023-03-06T01:11:41.117Z,64.94
2023-03-06T01:16:39.876Z,67.13
2023-03-06T01:21:38.997Z,66.38
2023-03-06T01:26:37.759Z,65.51
2023-03-06T01:31:36.813Z,65.62
2023-03-06T01:36:35.716Z,65.79
2023-03-06T01:41:34.742Z,64.68
2023-03-06T01:46:34.053Z,64.69
2023-03-06T01:51:41.145Z,65.57
2023-03-06T01:56:44.552Z,64.94
2023-03-06T02:01:44.238Z,64.65
2023-03-06T02:06:43.352Z,65.16
2023-03-06T02:11:44.257Z,65.38
2023-03-06T02:16:43.585Z,64.96
2023-03-06T02:21:42.613Z,64.71
2023-03-06T02:26:43.837Z,65.20
2023-03-06T02:31:42.856Z,64.08
2023-03-06T02:36:49.800Z,65.07
2023-03-06T02:41:48.862Z,65.30
2023-03-06T02:46:49.111Z,64.96
2023-03-06T02:51:48.077Z,64.91
2023-03-06T02:56:46.768Z,65.78
2023-03-06T03:01:47.926Z,66.76
2023-03-06T03:06:46.854Z,66.37
2023-03-06T03:11:46.448Z,66.74
2023-03-06T03:16:45.522Z,65.83
2023-03-06T03:21:44.559Z,65.36
2023-03-06T03:26:43.448Z,66.02
2023-03-06T03:31:46.997Z,65.88
2023-03-06T03:36:46.714Z,66.53
2023-03-06T03:41:46.951Z,66.70
2023-03-06T03:46:45.977Z,64.69
2023-03-06T03:51:50.152Z,65.05
2023-03-06T03:56:49.867Z,65.88
2023-03-06T04:01:56.211Z,65.32
2023-03-06T04:06:56.775Z,65.62
2023-03-06T04:11:59.189Z,65.90
2023-03-06T04:16:58.559Z,65.47
2023-03-06T04:21:57.623Z,66.45
2023-03-06T04:26:56.474Z,65.82
2023-03-06T04:31:55.919Z,65.63
2023-03-06T04:36:54.971Z,65.40
2023-03-06T04:41:54.056Z,66.23
2023-03-06T04:46:53.166Z,66.26
2023-03-06T04:51:52.073Z,66.19
2023-03-06T04:56:51.197Z,65.66
2023-03-06T05:01:50.052Z,66.03
2023-03-06T05:06:49.693Z,65.43
2023-03-06T05:11:48.426Z,66.03
2023-03-06T05:16:47.501Z,67.40
2023-03-06T05:21:46.379Z,65.57
2023-03-06T05:26:45.076Z,65.41
2023-03-06T05:31:44.232Z,78.66
2023-03-06T05:36:43.202Z,55.31
2023-03-06T05:41:42.034Z,57.22
2023-03-06T05:46:40.841Z,53.21
2023-03-06T05:51:39.569Z,49.64
2023-03-06T05:56:38.500Z,57.28
2023-03-06T06:01:37.270Z,61.66
2023-03-06T06:06:36.277Z,63.17
2023-03-06T06:11:35.048Z,63.63
2023-03-06T06:16:34.122Z,63.50
2023-03-06T06:21:34.480Z,63.03
2023-03-06T06:26:33.894Z,64.00
2023-03-06T06:31:33.125Z,64.78
2023-03-06T06:36:33.514Z,61.92
2023-03-06T06:41:51.019Z,61.29
2023-03-06T06:52:11.094Z,62.41
2023-03-06T06:57:11.791Z,62.53
2023-03-06T07:02:12.860Z,61.32
2023-03-06T07:07:11.672Z,61.77
2023-03-06T07:12:10.718Z,61.73
2023-03-06T07:17:10.142Z,61.24
2023-03-06T07:22:08.944Z,59.60
2023-03-06T07:27:08.638Z,59.73
2023-03-06T07:32:07.550Z,57.52
2023-03-06T07:37:07.167Z,57.75
2023-03-06T07:42:07.905Z,58.47
2023-03-06T07:47:07.284Z,59.01
2023-03-06T07:52:06.361Z,59.28
2023-03-06T07:57:05.344Z,59.88
2023-03-06T08:02:04.735Z,58.51
2023-03-06T08:07:03.829Z,57.85
2023-03-06T08:12:02.860Z,58.70
2023-03-06T08:17:01.951Z,58.26
2023-03-06T08:22:00.870Z,57.14
2023-03-06T08:27:00.062Z,60.99
2023-03-06T08:31:59.100Z,57.98
2023-03-06T08:36:58.754Z,60.07
2023-03-06T08:41:58.365Z,59.94
2023-03-06T08:46:57.618Z,58.61
2023-03-06T08:51:56.626Z,59.94
2023-03-06T08:56:55.668Z,59.81
2023-03-06T09:01:54.719Z,59.86
2023-03-06T09:06:55.498Z,60.09
2023-03-06T09:11:55.181Z,59.66
2023-03-06T09:16:54.324Z,58.68
2023-03-06T09:21:54.239Z,57.98
2023-03-06T09:26:53.329Z,56.85
2023-03-06T09:31:52.309Z,57.52
2023-03-06T09:36:56.424Z,57.27
2023-03-06T09:41:58.352Z,56.22
2023-03-06T09:47:00.113Z,56.37
2023-03-06T09:52:08.032Z,56.75
2023-03-06T09:57:18.938Z,56.99
2023-03-06T10:02:29.885Z,57.46
2023-03-06T10:07:39.157Z,56.12
2023-03-06T10:12:48.617Z,57.15
2023-03-06T10:17:48.154Z,56.56
2023-03-06T10:23:08.972Z,56.91
2023-03-06T10:28:29.581Z,58.70
2023-03-06T10:34:13.976Z,58.31
2023-03-06T10:39:16.982Z,58.69
2023-03-06T10:44:16.452Z,58.77
2023-03-06T10:49:37.935Z,58.89
2023-03-06T10:54:39.647Z,59.07
2023-03-06T10:59:51.635Z,56.30
2023-03-06T11:04:53.060Z,56.89
2023-03-06T11:09:58.060Z,56.19
2023-03-06T11:15:12.821Z,57.63
2023-03-06T11:20:14.959Z,58.67
2023-03-06T11:25:17.250Z,58.42
2023-03-06T11:30:21.846Z,61.11
2023-03-06T11:35:24.856Z,63.49
2023-03-06T11:40:31.002Z,62.65
2023-03-06T11:45:47.421Z,61.49
2023-03-06T11:50:50.256Z,61.97
2023-03-06T11:56:03.768Z,64.90
2023-03-06T12:01:16.089Z,69.60
2023-03-06T12:06:44.495Z,70.41
2023-03-06T12:12:06.062Z,68.86
2023-03-06T12:17:18.613Z,67.31
2023-03-06T12:22:57.793Z,65.07
2023-03-06T12:28:11.879Z,63.66
2023-03-06T12:33:29.898Z,65.30
2023-03-06T12:38:41.096Z,64.44
2023-03-06T12:44:02.759Z,64.88
2023-03-06T12:49:31.996Z,65.88
2023-03-06T12:54:36.852Z,65.92
2023-03-06T12:59:48.038Z,68.98
2023-03-06T13:05:27.763Z,68.46
2023-03-06T13:10:34.005Z,71.29
2023-03-06T13:15:36.108Z,71.58
2023-03-06T13:20:40.998Z,72.55
2023-03-06T13:25:48.157Z,72.02
2023-03-06T13:30:47.076Z,73.85
2023-03-06T13:35:54.072Z,75.01
2023-03-06T13:41:22.306Z,73.28
2023-03-06T13:46:27.384Z,73.07
2023-03-06T13:51:31.323Z,74.11
2023-03-06T13:56:46.283Z,72.34
2023-03-06T14:02:15.805Z,73.35
2023-03-06T14:07:58.360Z,70.96
2023-03-06T14:13:14.948Z,69.96
2023-03-06T14:18:18.728Z,69.32
2023-03-06T14:23:35.546Z,67.55
2023-03-06T14:28:35.851Z,67.58
2023-03-06T14:34:05.147Z,66.12
2023-03-06T14:39:13.006Z,67.58
2023-03-06T14:44:26.670Z,67.77
2023-03-06T14:49:26.987Z,67.74
2023-03-06T14:54:32.053Z,66.29
2023-03-06T14:59:39.419Z,66.92
2023-03-06T15:04:44.441Z,67.27
2023-03-06T15:09:52.187Z,65.23
2023-03-06T15:15:01.751Z,66.54
2023-03-06T15:20:01.281Z,65.73
2023-03-06T15:25:18.641Z,64.12
2023-03-06T15:30:23.348Z,63.54
2023-03-06T15:35:34.265Z,64.36
2023-03-06T15:40:35.916Z,64.91
2023-03-06T15:45:35.262Z,64.41
2023-03-06T15:50:34.188Z,65.58
2023-03-06T15:55:33.341Z,67.32
2023-03-06T16:00:34.462Z,68.75
2023-03-06T16:05:33.301Z,69.10
2023-03-06T16:10:35.526Z,68.88
2023-03-06T16:15:45.063Z,67.78
2023-03-06T16:20:43.931Z,79.02
2023-03-06T16:25:48.526Z,81.93
2023-03-06T16:30:47.530Z,82.63
2023-03-06T16:35:47.348Z,83.53
2023-03-06T16:40:46.063Z,83.21
2023-03-06T16:45:45.135Z,82.99
2023-03-06T16:50:44.681Z,82.07
2023-03-06T16:55:43.509Z,82.62
2023-03-06T17:00:42.519Z,80.82
2023-03-06T17:05:43.680Z,80.75
2023-03-06T17:10:42.910Z,81.74
2023-03-06T17:15:41.773Z,81.63
2023-03-06T17:20:40.923Z,80.90
2023-03-06T17:25:39.858Z,80.63
2023-03-06T17:30:38.666Z,79.51
2023-03-06T17:35:37.811Z,77.26
2023-03-06T17:40:37.588Z,78.23
2023-03-06T17:45:37.055Z,77.68
2023-03-06T17:50:35.795Z,75.98
2023-03-06T17:55:34.773Z,88.15
2023-03-06T18:00:33.948Z,63.04
2023-03-06T18:05:32.846Z,69.50
2023-03-06T18:10:32.055Z,70.57
2023-03-06T18:15:31.142Z,71.01
2023-03-06T18:20:30.190Z,70.97
2023-03-06T18:25:31.054Z,72.44
2023-03-06T18:30:29.917Z,71.45
2023-03-06T18:35:28.938Z,72.49
2023-03-06T18:40:27.705Z,72.30
2023-03-06T18:45:26.551Z,73.27
2023-03-06T18:50:25.526Z,74.83
2023-03-06T18:55:24.373Z,72.52
2023-03-06T19:00:23.660Z,73.95
2023-03-06T19:05:22.651Z,74.04
2023-03-06T19:10:21.475Z,72.77
2023-03-06T19:15:20.214Z,71.44
2023-03-06T19:20:19.069Z,72.55
2023-03-06T19:25:18.226Z,73.55
2023-03-06T19:30:17.069Z,72.14
2023-03-06T19:35:15.862Z,71.22
2023-03-06T19:40:15.773Z,71.97
2023-03-06T19:45:14.611Z,71.86
2023-03-06T19:50:13.540Z,70.68
2023-03-06T19:55:12.636Z,69.86
2023-03-06T20:00:12.356Z,68.97
2023-03-06T20:05:14.445Z,69.25
2023-03-06T20:10:13.252Z,69.12
2023-03-06T20:15:13.030Z,68.90
2023-03-06T20:20:12.375Z,68.96
2023-03-06T20:25:11.301Z,70.21
2023-03-06T20:30:10.618Z,69.77
2023-03-06T20:35:09.559Z,70.47
2023-03-06T20:40:09.081Z,71.38
2023-03-06T20:45:08.720Z,70.99
2023-03-06T20:50:07.903Z,70.22
2023-03-06T20:55:07.149Z,70.36
2023-03-06T21:00:06.838Z,71.17
2023-03-06T21:05:06.675Z,71.33
2023-03-06T21:10:06.255Z,70.62
2023-03-06T21:15:05.544Z,71.06
2023-03-06T21:20:05.887Z,70.69
2023-03-06T21:25:05.084Z,72.55
2023-03-06T21:30:04.867Z,70.79
2023-03-06T21:35:03.700Z,70.63
2023-03-06T21:40:02.714Z,70.45
2023-03-06T21:45:04.037Z,70.54
2023-03-06T21:50:02.845Z,70.56
2023-03-06T21:55:01.771Z,73.37
2023-03-06T22:00:00.709Z,72.52
2023-03-06T22:04:59.694Z,72.08
2023-03-06T22:09:58.545Z,73.32
2023-03-06T22:14:57.346Z,72.87
2023-03-06T22:19:56.065Z,72.07
2023-03-06T22:24:54.824Z,73.47
2023-03-06T22:29:53.591Z,73.65
2023-03-06T22:34:52.314Z,73.56
2023-03-06T22:39:51.087Z,75.05
2023-03-06T22:44:49.818Z,74.97
2023-03-06T22:49:48.569Z,74.41
2023-03-06T22:54:47.354Z,73.98
2023-03-06T22:59:46.125Z,73.37
2023-03-06T23:04:52.316Z,71.89
2023-03-06T23:09:51.144Z,72.65
2023-03-06T23:15:08.306Z,73.62
2023-03-06T23:20:25.745Z,72.44
2023-03-06T23:25:44.125Z,70.85
2023-03-06T23:30:43.319Z,70.68
2023-03-06T23:35:44.125Z,70.61
2023-03-06T23:40:42.928Z,70.38
2023-03-06T23:45:41.673Z,72.18
2023-03-06T23:50:41.142Z,71.39
2023-03-06T23:55:47.796Z,71.76
